Bagdad, Florida
Current Conditions -  °F | °C
As of 6:56 PM on Wednesday 26 Nov 2014 (Local Time) from KNDZ Reporting Station
Clear Clear  
Wind Chill: 11°   Ceiling: Unl
Heat Index: 11°   Visibility: 10mi
Dew Point:   Wind: 5mph
Humidity: 54%   Direction: 210°SSW
Pressure: 30.19"   Gusts: NA
Location:  30.6°N, 87.04°W
Report Text: KNDZ 270056Z 21004KT 10SM CLR 11/02 A3019 RMK AO2 SLP210 T01110022
Loading
Personal Weather Stations






























Interactive Weather Map New forecast layout! Learn more

10-Day Weather Forecast

Advertisements
Track Severe Weather on mobile